Latest Weather Observations for Frederick Reef

IDQ60801

Issued at 7:02 am EST Wednesday 22 February 2017 (issued every 30 minutes, with the page automatically refreshed every 10 minutes)

About weather observations | Map of weather stations | Latest weather observations for QLD | Other Formats
Station Details ID: 200701 Name: FREDERICK REEF Lat: -20.94 Lon: 154.40 Height: 4.9 m
Data from the previous 72 hours. | See also: Recent months for locations in Queensland
Date/Time
EST
Temp
°C
App
Temp
°C
Dew
Point
°C
Rel
Hum
%
Delta-T
°C
Wind Press
QNH
hPa
Press
MSL
hPa
Rain since
9am
mm
Dir  Spd
km/h
Gust
km/h
Spd
kts
Gust
kts
21/10:30pm 27.7 - - - - SE 35 39 19 21 1013.3 - -
21/10:00pm 28.0 - - - - SE 35 41 19 22 1013.4 1013.3 -
21/09:45pm 28.2 - - - - ESE 35 37 19 20 1013.5 - -
21/09:30pm 28.3 - - - - ESE 2 6 1 3 1013.4 - -
21/09:00pm 28.3 - - - - ESE 2 6 1 3 1013.3 1013.3 -
21/08:30pm 28.1 - - - - SE 2 6 1 3 1013.1 - -
21/08:00pm 28.1 - - - - SE 33 39 18 21 1012.9 1012.8 -
21/07:42pm 28.3 - - - - SE 30 32 16 17 1012.9 - -
21/07:30pm 28.0 - - - - SE 2 7 1 4 1012.8 - -
21/07:00pm 28.0 - - - - SE 2 6 1 3 1012.7 1012.6 -
21/06:30pm 28.2 - - - - SE 6 37 3 20 1012.4 - -
21/06:00pm 28.1 - - - - SE 32 37 17 20 1012.0 1012.0 -
21/05:30pm 28.0 - - - - SE 30 35 16 19 1011.7 - -
21/05:00pm 27.8 - - - - SSE 32 33 17 18 1011.4 1011.3 -
21/04:30pm 28.1 - - - - SSE 28 32 15 17 1011.1 - -
21/04:00pm 28.1 - - - - SSE 26 30 14 16 1011.2 1011.1 -
21/03:30pm 27.9 - - - - SSE 24 28 13 15 1011.2 - -
21/03:00pm 27.9 - - - - SE 24 28 13 15 1011.4 1011.2 -
21/02:30pm 27.9 - - - - SSE 24 28 13 15 1011.6 - -
21/02:00pm 27.6 - - - - SSE 22 26 12 14 1011.9 1011.7 -
21/01:30pm 27.7 - - - - SE 22 24 12 13 1012.1 - -
21/01:00pm 27.6 - - - - SSE 22 26 12 14 1012.3 1012.1 -
21/12:30pm 27.5 - - - - SSE 20 24 11 13 1012.6 - -
21/12:00pm 27.6 - - - - SE 20 24 11 13 1012.8 1012.6 -
21/11:30am 27.5 - - - - SSE 20 24 11 13 1013.0 - -
21/11:00am 27.5 - - - - SSE 19 20 10 11 1013.3 1013.1 -
21/10:30am 27.5 - - - - SSE 20 24 11 13 1013.4 - -
21/10:00am 27.5 - - - - SSE 20 26 11 14 1013.4 1013.3 -
21/09:30am 27.4 - - - - SE 20 26 11 14 1013.4 - -
21/09:00am 27.5 - - - - SE 22 26 12 14 1013.3 1013.3 -
21/08:30am 27.6 - - - - SSE 15 17 8 9 1013.1 - -
21/08:00am 27.8 - - - - SSE 17 20 9 11 1012.8 1012.8 -
21/07:30am 27.6 - - - - SE 19 20 10 11 1012.7 - -
21/07:00am 27.6 - - - - CALM 0 4 0 2 1012.4 1012.4 -
21/06:30am 27.4 - - - - SE 15 17 8 9 1012.0 - -
21/06:00am 27.2 - - - - ESE 15 19 8 10 1011.7 1011.7 -
21/05:30am 27.2 - - - - ESE 17 20 9 11 1011.4 - -
21/05:00am 27.2 - - - - ESE 19 20 10 11 1011.1 1011.0 -
21/04:30am 27.1 - - - - CALM 0 7 0 4 1010.9 - -
21/04:00am 27.4 - - - - E 2 6 1 3 1010.6 1010.6 -
21/03:30am 27.3 - - - - CALM 0 6 0 3 1010.4 - -
21/03:00am 27.5 - - - - CALM 0 4 0 2 1010.3 1010.2 -
21/02:30am 27.4 - - - - ESE 2 9 1 5 1010.5 - -
21/02:00am 27.2 - - - - CALM 0 6 0 3 1010.7 1010.6 -
21/01:30am 27.6 - - - - CALM 0 4 0 2 1011.1 - -
21/01:00am 27.5 - - - - CALM 0 6 0 3 1011.4 1011.3 -
21/12:30am 27.6 - - - - ESE 2 6 1 3 1011.7 - -
21/12:00am 27.6 - - - - CALM 0 4 0 2 1011.8 1011.6 -
 
Date/Time
EST
Temp
°C
App
Temp
°C
Dew
Point
°C
Rel
Hum
%
Delta-T
°C
Wind Press
QNH
hPa
Press
MSL
hPa
Rain since
9am
mm
Dir  Spd
km/h
Gust
km/h
Spd
kts
Gust
kts
20/11:30pm 27.6 - - - - CALM 0 4 0 2 1012.0 - -
20/11:00pm 28.0 - - - - CALM 0 4 0 2 1012.1 1012.1 -
20/10:30pm 27.9 - - - - CALM 0 6 0 3 1012.3 - -
20/10:00pm 28.4 - - - - CALM 0 6 0 3 1012.3 1012.2 -
20/09:30pm 28.1 - - - - CALM 0 4 0 2 1012.2 - -
20/09:00pm 27.9 - - - - CALM 0 4 0 2 1012.0 1012.0 -
20/08:30pm 28.0 - - - - CALM 0 4 0 2 1011.8 - -
20/08:00pm 28.0 - - - - CALM 0 4 0 2 1011.4 1011.4 -
20/07:30pm 28.1 - - - - CALM 0 4 0 2 1011.2 - -
20/07:00pm 27.9 - - - - CALM 0 6 0 3 1010.9 1010.9 -
20/06:30pm 28.1 - - - - CALM 0 6 0 3 1010.4 - -
20/06:00pm 28.0 - - - - S 6 17 3 9 1010.1 1010.1 -
20/05:30pm 28.1 - - - - CALM 0 6 0 3 1009.5 - -
20/05:00pm 28.1 - - - - SSE 11 15 6 8 1009.1 1009.1 -
20/04:30pm 28.3 - - - - S 13 15 7 8 1009.0 - -
20/04:00pm 28.1 - - - - S 15 19 8 10 1008.8 1008.7 -
20/03:30pm 28.1 - - - - S 17 20 9 11 1008.7 - -
20/03:00pm 28.2 - - - - SSW 17 20 9 11 1008.8 1008.7 -
20/02:30pm 28.1 - - - - SSW 15 19 8 10 1008.8 - -
20/02:00pm 28.1 - - - - CALM 0 7 0 4 1008.9 1008.8 -
20/01:30pm 28.0 - - - - CALM 0 6 0 3 1009.1 - -
20/01:00pm 27.9 - - - - CALM 0 4 0 2 1009.4 1009.2 -
20/12:30pm 27.9 - - - - SSW 13 15 7 8 1009.6 - -
20/12:00pm 28.0 - - - - SSW 9 15 5 8 1010.0 1009.8 -
20/11:30am 28.2 - - - - WSW 2 7 1 4 1010.4 - -
20/11:00am 28.9 - - - - CALM 0 0 0 0 1010.7 1010.5 -
20/10:30am 28.0 - - - - CALM 0 0 0 0 1010.8 - -
20/10:00am 28.0 - - - - WSW 6 9 3 5 1010.8 1010.6 -
20/09:30am 27.9 - - - - WSW 7 11 4 6 1010.8 - -
20/09:00am 27.9 - - - - WSW 7 9 4 5 1010.9 1010.8 -
20/08:30am 28.1 - - - - W 7 9 4 5 1010.9 - -
20/08:00am 27.8 - - - - W 9 11 5 6 1010.9 1010.9 -
20/07:30am 28.0 - - - - W 7 9 4 5 1010.7 - -
20/07:00am 28.2 - - - - WNW 7 9 4 5 1010.3 1010.3 -
20/06:30am 27.8 - - - - CALM 0 0 0 0 1010.0 - -
20/06:00am 27.7 - - - - CALM 0 0 0 0 1009.6 1009.6 -
20/05:30am 27.3 - - - - CALM 0 9 0 5 1009.3 - -
20/05:00am 27.4 - - - - CALM 0 6 0 3 1009.0 1009.0 -
20/04:30am 27.3 - - - - CALM 0 0 0 0 1008.8 - -
20/04:00am 27.2 - - - - CALM 0 6 0 3 1008.8 1008.7 -
20/03:30am 27.3 - - - - CALM 0 2 0 1 1008.5 - -
20/03:00am 27.3 - - - - CALM 0 2 0 1 1008.5 1008.4 -
20/02:30am 27.3 - - - - CALM 0 4 0 2 1008.5 - -
20/02:00am 27.3 - - - - CALM 0 4 0 2 1008.6 1008.5 -
20/01:30am 27.3 - - - - CALM 0 4 0 2 1008.7 - -
20/01:00am 27.3 - - - - CALM 0 4 0 2 1009.0 1008.9 -
20/12:30am 27.3 - - - - CALM 0 6 0 3 1009.2 - -
20/12:00am 27.4 - - - - CALM 0 4 0 2 1009.4 1009.3 -
 
Date/Time
EST
Temp
°C
App
Temp
°C
Dew
Point
°C
Rel
Hum
%
Delta-T
°C
Wind Press
QNH
hPa
Press
MSL
hPa
Rain since
9am
mm
Dir  Spd
km/h
Gust
km/h
Spd
kts
Gust
kts
19/11:30pm 27.4 - - - - CALM 0 6 0 3 1009.3 - -
19/11:00pm 27.3 - - - - CALM 0 4 0 2 1009.6 1009.5 -
19/10:30pm 27.3 - - - - CALM 0 2 0 1 1009.8 - -
19/10:00pm 27.5 - - - - CALM 0 6 0 3 1010.0 1009.8 -
19/09:30pm 27.6 - - - - CALM 0 4 0 2 1010.0 - -
19/09:00pm 27.4 - - - - CALM 0 4 0 2 1009.7 1009.6 -
19/08:30pm 27.5 - - - - CALM 0 2 0 1 1009.3 - -
19/08:00pm 27.6 - - - - CALM 0 0 0 0 1009.0 1009.0 -
19/07:30pm 27.7 - - - - CALM 0 0 0 0 1008.8 - -
19/07:00pm 27.8 - - - - CALM 0 0 0 0 1008.2 1008.2 -
19/06:30pm 27.9 - - - - CALM 0 6 0 3 1007.8 - -
19/06:00pm 29.4 - - - - CALM 0 6 0 3 1007.7 1007.6 -
19/05:30pm 28.8 - - - - CALM 0 6 0 3 1007.5 - -
19/05:00pm 28.9 - - - - NNE 7 7 4 4 1007.3 1007.2 -
19/04:30pm 28.0 - - - - NE 7 11 4 6 1007.1 - -
19/04:00pm 28.1 - - - - ESE 4 7 2 4 1007.1 1007.0 -
19/03:30pm 28.0 - - - - SSW 2 7 1 4 1007.2 - -
19/03:00pm 27.9 - - - - CALM 0 0 0 0 1007.3 1007.2 -
19/02:30pm 28.0 - - - - CALM 0 6 0 3 1007.6 - -
19/02:00pm 27.7 - - - - CALM 0 9 0 5 1007.8 1007.6 -
19/01:30pm 27.7 - - - - CALM 0 6 0 3 1008.0 - -
19/01:00pm 27.2 - - - - WSW 6 9 3 5 1008.1 1008.0 -
19/12:30pm 27.1 - - - - WSW 9 11 5 6 1008.7 - -
19/12:00pm 27.0 - - - - SW 11 13 6 7 1009.0 1008.8 -
19/11:30am 26.9 - - - - SW 9 13 5 7 1009.3 - -
19/11:00am 27.0 - - - - WSW 7 9 4 5 1009.5 1009.3 -
19/10:30am 26.8 - - - - WSW 7 9 4 5 1009.6 - -
19/10:00am 26.9 - - - - SW 4 7 2 4 1009.9 1009.8 -
19/09:30am 27.1 - - - - CALM 0 0 0 0 1010.2 - -
19/09:00am 27.1 - - - - CALM 0 2 0 1 1010.1 1010.0 -
19/08:30am 26.7 - - - - CALM 0 9 0 5 1010.2 - -
19/08:00am 26.9 - - - - CALM 0 2 0 1 1010.3 1010.2 -
19/07:30am 26.9 - - - - CALM 0 0 0 0 1010.0 - -

Other Formats:

Comma delimited format used in spreadsheet applications
http://www.bom.gov.au/fwo/IDQ60801/IDQ60801.94393.axf

JavaScript Object Notation format (JSON) in row-major order
http://www.bom.gov.au/fwo/IDQ60801/IDQ60801.94393.json